Rhino — 9V8875 — position and weather

sailwx.info

Track history (hours):
 
Tides and Currents Weather Stations Pressure Air Temp Water Temp Dewpoint Dewpoint Depression Visibility Wind Speed Wind Dir Waves Ship Positions

Rhino

Last reported at 2017-Oct-17 19:41 UTC. Time now 2017-Oct-23 06:03 UTC.
Position N 45°19' W 002°50'.

Length 176 m; draft 6.7 m.

Type: Tanker. MMSI: 564224000.

Date/timePositionNaut miles runAvg speedWind from/ knotsBaromVisibWave heightAir tempDewpointWater temp
2017-Oct-17 19:41N 45°19' W 002°50'311.8
2017-Oct-17 19:26N 45°20' W 002°46'611.9
2017-Oct-17 18:56N 45°22' W 002°38'511.6
2017-Oct-17 18:30N 45°24' W 002°31'1011.6
2017-Oct-17 17:39N 45°27' W 002°18'2112.2
2017-Oct-17 15:54N 45°33' W 001°48'9 1.7
2017-Oct-17 10:19N 45°36' W 001°36'0 0.0
2017-Oct-17 09:58N 45°36' W 001°36'0 0.0
2017-Oct-17 09:28N 45°36' W 001°36'0 0.0
2017-Oct-17 08:58N 45°36' W 001°36'0 0.0
2017-Oct-17 08:25N 45°36' W 001°36'0 0.0
2017-Oct-17 07:43N 45°36' W 001°36'0 0.0
2017-Oct-17 06:28N 45°36' W 001°36'0 0.0
2017-Oct-17 04:52N 45°36' W 001°36'0 0.0
2017-Oct-17 04:16N 45°36' W 001°36'0 0.3
2017-Oct-17 03:52N 45°36' W 001°36'1 3.3
2017-Oct-17 03:28N 45°36' W 001°34'511.4
2017-Oct-17 03:00N 45°37' W 001°26'5 9.8
2017-Oct-17 02:30N 45°37' W 001°19'612.3
2017-Oct-17 02:00N 45°39' W 001°11'611.8
2017-Oct-17 01:30N 45°36' W 001°04'5 9.7
2017-Oct-17 01:00N 45°32' W 001°00'611.2
2017-Oct-17 00:30N 45°28' W 000°55'510.2
2017-Oct-17 00:00N 45°24' W 000°50'610.4
2017-Oct-16 23:26N 45°19' W 000°46'1 0.0
2017-Oct-15 12:37N 45°18' W 000°46'213.2
2017-Oct-15 12:29N 45°19' W 000°47'813.3
2017-Oct-15 11:51N 45°26' W 000°53'514.2
2017-Oct-15 11:31N 45°30' W 000°58'714.4
2017-Oct-15 11:01N 45°36' W 001°04'713.9
2017-Oct-15 10:30N 45°40' W 001°12'713.4
2017-Oct-15 09:59N 45°37' W 001°21'5 9.9
2017-Oct-15 09:30N 45°37' W 001°28'0 0.4
2017-Oct-15 09:00N 45°37' W 001°28'0 0.0
2017-Oct-15 08:22N 45°37' W 001°28'0 0.0
2017-Oct-15 07:47N 45°37' W 001°28'0 0.0
2017-Oct-15 07:25N 45°37' W 001°28'0 0.0
2017-Oct-15 07:00N 45°37' W 001°28'0 0.0
2017-Oct-15 06:29N 45°37' W 001°28'0 0.0
2017-Oct-15 05:50N 45°37' W 001°28'0 0.0
2017-Oct-15 05:30N 45°37' W 001°28'0 0.0
2017-Oct-15 04:59N 45°37' W 001°28'1 1.3
2017-Oct-15 04:30N 45°37' W 001°29'1210.2
2017-Oct-15 03:19N 45°36' W 001°46'310.9
2017-Oct-15 03:00N 45°36' W 001°51'511.0
2017-Oct-15 02:30N 45°36' W 001°59'611.2
2017-Oct-15 02:00N 45°36' W 002°07'611.3
2017-Oct-15 01:31N 45°35' W 002°15'611.5
2017-Oct-15 01:00N 45°36' W 002°23'611.4
2017-Oct-15 00:30N 45°36' W 002°31'611.4
2017-Oct-15 00:00N 45°36' W 002°39'611.6
2017-Oct-14 23:30N 45°36' W 002°48'611.8
2017-Oct-14 23:00N 45°36' W 002°56'612.0
2017-Oct-14 22:31N 45°36' W 003°05'612.0
2017-Oct-14 21:59N 45°35' W 003°14'811.9
2017-Oct-14 21:18N 45°35' W 003°25'411.6
2017-Oct-14 20:58N 45°35' W 003°31'1411.4
2017-Oct-14 19:47N 45°36' W 003°50'1311.4
2017-Oct-14 18:36N 45°35' W 004°09'411.6
2017-Oct-14 18:15N 45°36' W 004°15'311.7
2017-Oct-14 18:00N 45°36' W 004°19'711.6
2017-Oct-14 17:22N 45°36' W 004°30'511.7
2017-Oct-14 16:56N 45°36' W 004°37'511.5
2017-Oct-14 16:30N 45°36' W 004°44'611.6
2017-Oct-14 16:00N 45°36' W 004°52'611.4
2017-Oct-14 15:27N 45°35' W 005°01'511.6
2017-Oct-14 15:00N 45°34' W 005°08'611.9
2017-Oct-14 14:30N 45°33' W 005°17'611.7
2017-Oct-14 14:00N 45°31' W 005°25'711.9
2017-Oct-14 13:24N 45°29' W 005°35'3511.5
2017-Oct-14 10:21N 45°20' W 006°23'14010.6
2017-Oct-13 21:06N 44°11' W 009°15'211.8
2017-Oct-13 20:58N 44°10' W 009°16'29211.5
2017-Oct-12 19:42N 39°20' W 009°57'210.9
2017-Oct-12 19:30N 39°18' W 009°57'611.7
2017-Oct-12 18:59N 39°11' W 009°57'612.0
2017-Oct-12 18:31N 39°06' W 009°57'612.0
2017-Oct-12 18:01N 38°60' W 009°57'612.0
2017-Oct-12 17:31N 38°54' W 009°57'611.8
2017-Oct-12 17:01N 38°48' W 009°57'611.8
2017-Oct-12 16:30N 38°42' W 009°57'611.6
2017-Oct-12 16:00N 38°36' W 009°55'611.3
2017-Oct-12 15:30N 38°31' W 009°54'611.5
2017-Oct-12 15:01N 38°25' W 009°52'611.5
2017-Oct-12 14:28N 38°20' W 009°48'612.4
2017-Oct-12 14:00N 38°17' W 009°42'612.1
2017-Oct-12 13:30N 38°13' W 009°36'612.1
2017-Oct-12 13:00N 38°10' W 009°29'611.9
2017-Oct-12 12:30N 38°06' W 009°23'611.5
2017-Oct-12 12:00N 38°03' W 009°18'611.6
2017-Oct-12 11:30N 37°59' W 009°12'612.3
2017-Oct-12 11:00N 37°55' W 009°05'612.1
2017-Oct-12 10:30N 37°54' W 008°58'4 8.8
2017-Oct-12 10:00N 37°56' W 008°53'1 1.3
2017-Oct-12 09:28N 37°57' W 008°53'0 0.0
2017-Oct-12 08:58N 37°57' W 008°53'0 0.0
2017-Oct-12 08:28N 37°57' W 008°53'0 0.0
2017-Oct-12 07:58N 37°57' W 008°53'0 0.0
2017-Oct-12 07:28N 37°57' W 008°53'0 0.0
2017-Oct-12 06:58N 37°57' W 008°53'0 0.0
2017-Oct-12 06:28N 37°57' W 008°53'0 0.0
2017-Oct-12 05:58N 37°57' W 008°53'0 0.0
2017-Oct-12 05:28N 37°57' W 008°53'0 0.0
2017-Oct-12 04:58N 37°57' W 008°53'0 0.0
2017-Oct-12 04:28N 37°57' W 008°53'0 0.0
2017-Oct-12 03:58N 37°57' W 008°53'0 0.0
2017-Oct-12 03:28N 37°57' W 008°53'0 0.0
2017-Oct-12 02:58N 37°57' W 008°53'0 0.0
2017-Oct-12 02:28N 37°57' W 008°53'0 0.0
2017-Oct-12 01:58N 37°57' W 008°53'0 0.0
2017-Oct-12 01:28N 37°57' W 008°53'0 0.0
2017-Oct-12 00:58N 37°57' W 008°53'0 0.0
2017-Oct-12 00:28N 37°57' W 008°53'0 0.0
2017-Oct-11 23:58N 37°57' W 008°53'0 0.0
2017-Oct-11 23:28N 37°57' W 008°53'0 0.0
2017-Oct-11 22:58N 37°57' W 008°53'0 0.0
2017-Oct-11 22:28N 37°57' W 008°53'0 0.0
2017-Oct-11 21:58N 37°57' W 008°53'0 0.0
2017-Oct-11 21:28N 37°57' W 008°53'0 0.0
2017-Oct-11 20:58N 37°57' W 008°53'0 0.0
2017-Oct-11 20:28N 37°57' W 008°53'0 0.0
2017-Oct-11 19:58N 37°57' W 008°53'0 0.0
2017-Oct-11 19:28N 37°57' W 008°53'0 0.0
2017-Oct-11 18:58N 37°57' W 008°53'0 0.0
2017-Oct-11 18:28N 37°57' W 008°53'0 0.0
2017-Oct-11 17:58N 37°57' W 008°53'0 0.0
2017-Oct-11 17:28N 37°57' W 008°53'0 0.0
2017-Oct-11 16:58N 37°57' W 008°53'3 0.2
2017-Oct-10 23:57N 37°54' W 008°52'0 0.1
2017-Oct-10 23:30N 37°54' W 008°52'0 0.4
2017-Oct-10 23:00N 37°54' W 008°53'2 4.5
2017-Oct-10 22:31N 37°52' W 008°54'611.4
2017-Oct-10 22:00N 37°46' W 008°54'713.6
2017-Oct-10 21:31N 37°43' W 009°02'714.0
2017-Oct-10 21:00N 37°41' W 009°10'713.5
2017-Oct-10 20:30N 37°38' W 009°18'713.6
2017-Oct-10 20:00N 37°35' W 009°26'714.4
2017-Oct-10 19:30N 37°32' W 009°34'714.4
2017-Oct-10 19:00N 37°30' W 009°42'714.4
2017-Oct-10 18:30N 37°27' W 009°51'714.2
2017-Oct-10 18:00N 37°23' W 009°59'714.4
2017-Oct-10 17:30N 37°17' W 010°03'714.2
2017-Oct-10 17:01N 37°11' W 010°07'714.3
2017-Oct-10 16:31N 37°04' W 010°11'714.6
2017-Oct-10 16:00N 36°58' W 010°15'714.6
2017-Oct-10 15:30N 36°51' W 010°19'714.4
2017-Oct-10 15:00N 36°45' W 010°23'1414.1
2017-Oct-10 14:00N 36°32' W 010°31'713.9
2017-Oct-10 13:30N 36°26' W 010°35'714.1
2017-Oct-10 13:00N 36°20' W 010°39'713.6
2017-Oct-10 12:29N 36°13' W 010°43'613.4
2017-Oct-10 12:00N 36°08' W 010°47'713.6
2017-Oct-10 11:31N 36°02' W 010°51'713.4
2017-Oct-10 11:00N 35°56' W 010°55'713.1
2017-Oct-10 10:30N 35°50' W 010°58'613.0
2017-Oct-10 10:00N 35°44' W 011°02'612.7
2017-Oct-10 09:30N 35°38' W 011°05'612.5
2017-Oct-10 09:00N 35°33' W 011°09'612.9
2017-Oct-10 08:30N 35°27' W 011°12'612.7
2017-Oct-10 08:01N 35°21' W 011°16'612.4
2017-Oct-10 07:30N 35°16' W 011°19'612.6
2017-Oct-10 07:00N 35°10' W 011°23'613.0
2017-Oct-10 06:30N 35°05' W 011°27'713.2
2017-Oct-10 06:00N 34°59' W 011°30'613.0
2017-Oct-10 05:30N 34°53' W 011°34'612.9
2017-Oct-10 05:00N 34°47' W 011°38'713.3
2017-Oct-10 04:30N 34°41' W 011°41'813.3
2017-Oct-10 03:56N 34°34' W 011°45'613.1
2017-Oct-10 03:30N 34°29' W 011°48'712.9
2017-Oct-10 03:00N 34°23' W 011°52'36813.1
2017-Oct-08 22:54N 29°00' W 015°19'512.6
2017-Oct-08 22:30N 28°56' W 015°23'612.2
2017-Oct-08 21:59N 28°51' W 015°27'612.2
2017-Oct-08 21:30N 28°46' W 015°31'612.2
2017-Oct-08 21:00N 28°42' W 015°35'612.3
2017-Oct-08 20:30N 28°37' W 015°39'612.5
2017-Oct-08 20:00N 28°32' W 015°44'612.5
2017-Oct-08 19:31N 28°27' W 015°49'612.4
2017-Oct-08 19:00N 28°23' W 015°54'510.5
2017-Oct-08 18:30N 28°21' W 015°59'713.1
2017-Oct-08 18:00N 28°23' W 016°06'712.8
2017-Oct-08 17:26N 28°26' W 016°14'  
Track history (hours):
 
Tides and Currents Weather Stations Pressure Air Temp Water Temp Dewpoint Dewpoint Depression Visibility Wind Speed Wind Dir Waves Ship Positions

Rhino

Last reported at 2017-Oct-17 19:41 UTC. Time now 2017-Oct-23 06:03 UTC.
Position N 45°19' W 002°50'.

Length 176 m; draft 6.7 m.

Type: Tanker. MMSI: 564224000.

Date/timePositionNaut miles runAvg speedWind from/ knotsBaromVisibWave heightAir tempDewpointWater temp
2017-Oct-17 19:41N 45°19' W 002°50'311.8
2017-Oct-17 19:26N 45°20' W 002°46'611.9
2017-Oct-17 18:56N 45°22' W 002°38'511.6
2017-Oct-17 18:30N 45°24' W 002°31'1011.6
2017-Oct-17 17:39N 45°27' W 002°18'2112.2
2017-Oct-17 15:54N 45°33' W 001°48'9 1.7
2017-Oct-17 10:19N 45°36' W 001°36'0 0.0
2017-Oct-17 09:58N 45°36' W 001°36'0 0.0
2017-Oct-17 09:28N 45°36' W 001°36'0 0.0
2017-Oct-17 08:58N 45°36' W 001°36'0 0.0
2017-Oct-17 08:25N 45°36' W 001°36'0 0.0
2017-Oct-17 07:43N 45°36' W 001°36'0 0.0
2017-Oct-17 06:28N 45°36' W 001°36'0 0.0
2017-Oct-17 04:52N 45°36' W 001°36'0 0.0
2017-Oct-17 04:16N 45°36' W 001°36'0 0.3
2017-Oct-17 03:52N 45°36' W 001°36'1 3.3
2017-Oct-17 03:28N 45°36' W 001°34'511.4
2017-Oct-17 03:00N 45°37' W 001°26'5 9.8
2017-Oct-17 02:30N 45°37' W 001°19'612.3
2017-Oct-17 02:00N 45°39' W 001°11'611.8
2017-Oct-17 01:30N 45°36' W 001°04'5 9.7
2017-Oct-17 01:00N 45°32' W 001°00'611.2
2017-Oct-17 00:30N 45°28' W 000°55'510.2
2017-Oct-17 00:00N 45°24' W 000°50'610.4
2017-Oct-16 23:26N 45°19' W 000°46'1 0.0
2017-Oct-15 12:37N 45°18' W 000°46'213.2
2017-Oct-15 12:29N 45°19' W 000°47'813.3
2017-Oct-15 11:51N 45°26' W 000°53'514.2
2017-Oct-15 11:31N 45°30' W 000°58'714.4
2017-Oct-15 11:01N 45°36' W 001°04'713.9
2017-Oct-15 10:30N 45°40' W 001°12'713.4
2017-Oct-15 09:59N 45°37' W 001°21'5 9.9
2017-Oct-15 09:30N 45°37' W 001°28'0 0.4
2017-Oct-15 09:00N 45°37' W 001°28'0 0.0
2017-Oct-15 08:22N 45°37' W 001°28'0 0.0
2017-Oct-15 07:47N 45°37' W 001°28'0 0.0
2017-Oct-15 07:25N 45°37' W 001°28'0 0.0
2017-Oct-15 07:00N 45°37' W 001°28'0 0.0
2017-Oct-15 06:29N 45°37' W 001°28'0 0.0
2017-Oct-15 05:50N 45°37' W 001°28'0 0.0
2017-Oct-15 05:30N 45°37' W 001°28'0 0.0
2017-Oct-15 04:59N 45°37' W 001°28'1 1.3
2017-Oct-15 04:30N 45°37' W 001°29'1210.2
2017-Oct-15 03:19N 45°36' W 001°46'310.9
2017-Oct-15 03:00N 45°36' W 001°51'511.0
2017-Oct-15 02:30N 45°36' W 001°59'611.2
2017-Oct-15 02:00N 45°36' W 002°07'611.3
2017-Oct-15 01:31N 45°35' W 002°15'611.5
2017-Oct-15 01:00N 45°36' W 002°23'611.4
2017-Oct-15 00:30N 45°36' W 002°31'611.4
2017-Oct-15 00:00N 45°36' W 002°39'611.6
2017-Oct-14 23:30N 45°36' W 002°48'611.8
2017-Oct-14 23:00N 45°36' W 002°56'612.0
2017-Oct-14 22:31N 45°36' W 003°05'612.0
2017-Oct-14 21:59N 45°35' W 003°14'811.9
2017-Oct-14 21:18N 45°35' W 003°25'411.6
2017-Oct-14 20:58N 45°35' W 003°31'1411.4
2017-Oct-14 19:47N 45°36' W 003°50'1311.4
2017-Oct-14 18:36N 45°35' W 004°09'411.6
2017-Oct-14 18:15N 45°36' W 004°15'311.7
2017-Oct-14 18:00N 45°36' W 004°19'711.6
2017-Oct-14 17:22N 45°36' W 004°30'511.7
2017-Oct-14 16:56N 45°36' W 004°37'511.5
2017-Oct-14 16:30N 45°36' W 004°44'611.6
2017-Oct-14 16:00N 45°36' W 004°52'611.4
2017-Oct-14 15:27N 45°35' W 005°01'511.6
2017-Oct-14 15:00N 45°34' W 005°08'611.9
2017-Oct-14 14:30N 45°33' W 005°17'611.7
2017-Oct-14 14:00N 45°31' W 005°25'711.9
2017-Oct-14 13:24N 45°29' W 005°35'3511.5
2017-Oct-14 10:21N 45°20' W 006°23'14010.6
2017-Oct-13 21:06N 44°11' W 009°15'211.8
2017-Oct-13 20:58N 44°10' W 009°16'29211.5
2017-Oct-12 19:42N 39°20' W 009°57'210.9
2017-Oct-12 19:30N 39°18' W 009°57'611.7
2017-Oct-12 18:59N 39°11' W 009°57'612.0
2017-Oct-12 18:31N 39°06' W 009°57'612.0
2017-Oct-12 18:01N 38°60' W 009°57'612.0
2017-Oct-12 17:31N 38°54' W 009°57'611.8
2017-Oct-12 17:01N 38°48' W 009°57'611.8
2017-Oct-12 16:30N 38°42' W 009°57'611.6
2017-Oct-12 16:00N 38°36' W 009°55'611.3
2017-Oct-12 15:30N 38°31' W 009°54'611.5
2017-Oct-12 15:01N 38°25' W 009°52'611.5
2017-Oct-12 14:28N 38°20' W 009°48'612.4
2017-Oct-12 14:00N 38°17' W 009°42'612.1
2017-Oct-12 13:30N 38°13' W 009°36'612.1
2017-Oct-12 13:00N 38°10' W 009°29'611.9
2017-Oct-12 12:30N 38°06' W 009°23'611.5
2017-Oct-12 12:00N 38°03' W 009°18'611.6
2017-Oct-12 11:30N 37°59' W 009°12'612.3
2017-Oct-12 11:00N 37°55' W 009°05'612.1
2017-Oct-12 10:30N 37°54' W 008°58'4 8.8
2017-Oct-12 10:00N 37°56' W 008°53'1 1.3
2017-Oct-12 09:28N 37°57' W 008°53'0 0.0
2017-Oct-12 08:58N 37°57' W 008°53'0 0.0
2017-Oct-12 08:28N 37°57' W 008°53'0 0.0
2017-Oct-12 07:58N 37°57' W 008°53'0 0.0
2017-Oct-12 07:28N 37°57' W 008°53'0 0.0
2017-Oct-12 06:58N 37°57' W 008°53'0 0.0
2017-Oct-12 06:28N 37°57' W 008°53'0 0.0
2017-Oct-12 05:58N 37°57' W 008°53'0 0.0
2017-Oct-12 05:28N 37°57' W 008°53'0 0.0
2017-Oct-12 04:58N 37°57' W 008°53'0 0.0
2017-Oct-12 04:28N 37°57' W 008°53'0 0.0
2017-Oct-12 03:58N 37°57' W 008°53'0 0.0
2017-Oct-12 03:28N 37°57' W 008°53'0 0.0
2017-Oct-12 02:58N 37°57' W 008°53'0 0.0
2017-Oct-12 02:28N 37°57' W 008°53'0 0.0
2017-Oct-12 01:58N 37°57' W 008°53'0 0.0
2017-Oct-12 01:28N 37°57' W 008°53'0 0.0
2017-Oct-12 00:58N 37°57' W 008°53'0 0.0
2017-Oct-12 00:28N 37°57' W 008°53'0 0.0
2017-Oct-11 23:58N 37°57' W 008°53'0 0.0
2017-Oct-11 23:28N 37°57' W 008°53'0 0.0
2017-Oct-11 22:58N 37°57' W 008°53'0 0.0
2017-Oct-11 22:28N 37°57' W 008°53'0 0.0
2017-Oct-11 21:58N 37°57' W 008°53'0 0.0
2017-Oct-11 21:28N 37°57' W 008°53'0 0.0
2017-Oct-11 20:58N 37°57' W 008°53'0 0.0
2017-Oct-11 20:28N 37°57' W 008°53'0 0.0
2017-Oct-11 19:58N 37°57' W 008°53'0 0.0
2017-Oct-11 19:28N 37°57' W 008°53'0 0.0
2017-Oct-11 18:58N 37°57' W 008°53'0 0.0
2017-Oct-11 18:28N 37°57' W 008°53'0 0.0
2017-Oct-11 17:58N 37°57' W 008°53'0 0.0
2017-Oct-11 17:28N 37°57' W 008°53'0 0.0
2017-Oct-11 16:58N 37°57' W 008°53'3 0.2
2017-Oct-10 23:57N 37°54' W 008°52'0 0.1
2017-Oct-10 23:30N 37°54' W 008°52'0 0.4
2017-Oct-10 23:00N 37°54' W 008°53'2 4.5
2017-Oct-10 22:31N 37°52' W 008°54'611.4
2017-Oct-10 22:00N 37°46' W 008°54'713.6
2017-Oct-10 21:31N 37°43' W 009°02'714.0
2017-Oct-10 21:00N 37°41' W 009°10'713.5
2017-Oct-10 20:30N 37°38' W 009°18'713.6
2017-Oct-10 20:00N 37°35' W 009°26'714.4
2017-Oct-10 19:30N 37°32' W 009°34'714.4
2017-Oct-10 19:00N 37°30' W 009°42'714.4
2017-Oct-10 18:30N 37°27' W 009°51'714.2
2017-Oct-10 18:00N 37°23' W 009°59'714.4
2017-Oct-10 17:30N 37°17' W 010°03'714.2
2017-Oct-10 17:01N 37°11' W 010°07'714.3
2017-Oct-10 16:31N 37°04' W 010°11'714.6
2017-Oct-10 16:00N 36°58' W 010°15'714.6
2017-Oct-10 15:30N 36°51' W 010°19'714.4
2017-Oct-10 15:00N 36°45' W 010°23'1414.1
2017-Oct-10 14:00N 36°32' W 010°31'713.9
2017-Oct-10 13:30N 36°26' W 010°35'714.1
2017-Oct-10 13:00N 36°20' W 010°39'713.6
2017-Oct-10 12:29N 36°13' W 010°43'613.4
2017-Oct-10 12:00N 36°08' W 010°47'713.6
2017-Oct-10 11:31N 36°02' W 010°51'713.4
2017-Oct-10 11:00N 35°56' W 010°55'713.1
2017-Oct-10 10:30N 35°50' W 010°58'613.0
2017-Oct-10 10:00N 35°44' W 011°02'612.7
2017-Oct-10 09:30N 35°38' W 011°05'612.5
2017-Oct-10 09:00N 35°33' W 011°09'612.9
2017-Oct-10 08:30N 35°27' W 011°12'612.7
2017-Oct-10 08:01N 35°21' W 011°16'612.4
2017-Oct-10 07:30N 35°16' W 011°19'612.6
2017-Oct-10 07:00N 35°10' W 011°23'613.0
2017-Oct-10 06:30N 35°05' W 011°27'713.2
2017-Oct-10 06:00N 34°59' W 011°30'613.0
2017-Oct-10 05:30N 34°53' W 011°34'612.9
2017-Oct-10 05:00N 34°47' W 011°38'713.3
2017-Oct-10 04:30N 34°41' W 011°41'813.3
2017-Oct-10 03:56N 34°34' W 011°45'613.1
2017-Oct-10 03:30N 34°29' W 011°48'712.9
2017-Oct-10 03:00N 34°23' W 011°52'36813.1
2017-Oct-08 22:54N 29°00' W 015°19'512.6
2017-Oct-08 22:30N 28°56' W 015°23'612.2
2017-Oct-08 21:59N 28°51' W 015°27'612.2
2017-Oct-08 21:30N 28°46' W 015°31'612.2
2017-Oct-08 21:00N 28°42' W 015°35'612.3
2017-Oct-08 20:30N 28°37' W 015°39'612.5
2017-Oct-08 20:00N 28°32' W 015°44'612.5
2017-Oct-08 19:31N 28°27' W 015°49'612.4
2017-Oct-08 19:00N 28°23' W 015°54'510.5
2017-Oct-08 18:30N 28°21' W 015°59'713.1
2017-Oct-08 18:00N 28°23' W 016°06'712.8
2017-Oct-08 17:26N 28°26' W 016°14'  

Dump ship's entire track history